createdAt,value
2018-09-05T00:00:41.604Z,78.39
2018-09-05T00:03:10.352Z,78.67
2018-09-05T00:05:39.133Z,78.34
2018-09-05T00:08:08.566Z,77.69
2018-09-05T00:10:38.843Z,77.79
2018-09-05T00:13:07.929Z,78.08
2018-09-05T00:15:37.612Z,77.72
2018-09-05T00:18:07.412Z,77.78
2018-09-05T00:20:36.742Z,77.95
2018-09-05T00:23:08.855Z,78.31
2018-09-05T00:25:38.067Z,78.86
2018-09-05T00:28:08.581Z,78.37
2018-09-05T00:33:37.817Z,79.56
2018-09-05T00:36:08.072Z,79.44
2018-09-05T00:38:37.884Z,79.30
2018-09-05T00:41:07.365Z,79.44
2018-09-05T00:43:36.735Z,79.35
2018-09-05T00:46:06.083Z,79.78
2018-09-05T00:48:35.240Z,79.99
2018-09-05T00:51:04.728Z,80.84
2018-09-05T00:53:33.739Z,79.84
2018-09-05T00:56:32.983Z,79.50
2018-09-05T00:59:02.543Z,79.90
2018-09-05T01:01:32.502Z,79.36
2018-09-05T01:04:01.295Z,79.20
2018-09-05T01:06:30.141Z,78.86
2018-09-05T01:08:59.780Z,78.98
2018-09-05T01:11:28.636Z,78.36
2018-09-05T01:13:57.975Z,77.78
2018-09-05T01:16:26.779Z,78.08
2018-09-05T01:18:55.543Z,78.41
2018-09-05T01:21:24.359Z,79.11
2018-09-05T01:23:53.867Z,78.49
2018-09-05T01:26:22.719Z,79.12
2018-09-05T01:28:52.192Z,79.32
2018-09-05T01:31:21.305Z,79.19
2018-09-05T01:34:18.820Z,79.82
2018-09-05T01:36:48.574Z,79.43
2018-09-05T01:39:17.364Z,78.97
2018-09-05T01:41:46.839Z,79.30
2018-09-05T01:44:15.763Z,80.00
2018-09-05T01:46:44.517Z,80.48
2018-09-05T01:49:13.470Z,81.42
2018-09-05T01:51:42.248Z,81.22
2018-09-05T01:54:11.134Z,80.79
2018-09-05T01:56:39.975Z,80.80
2018-09-05T01:59:09.941Z,80.67
2018-09-05T02:01:39.412Z,80.42
2018-09-05T02:04:08.344Z,81.04
2018-09-05T02:06:37.614Z,80.73
2018-09-05T02:09:11.580Z,80.66
2018-09-05T02:11:41.005Z,81.94
2018-09-05T02:14:10.480Z,81.20
2018-09-05T02:16:39.429Z,81.52
2018-09-05T02:19:08.530Z,81.80
2018-09-05T02:21:37.755Z,81.87
2018-09-05T02:24:07.571Z,81.53
2018-09-05T02:26:37.200Z,81.46
2018-09-05T02:29:07.059Z,81.24
2018-09-05T02:31:36.573Z,80.85
2018-09-05T02:34:06.472Z,81.00
2018-09-05T02:36:36.003Z,81.55
2018-09-05T02:39:07.412Z,81.38
2018-09-05T02:41:36.479Z,81.62
2018-09-05T02:44:10.520Z,81.41
2018-09-05T02:46:39.505Z,81.03
2018-09-05T02:49:08.469Z,80.81
2018-09-05T02:51:38.476Z,80.45
2018-09-05T02:54:07.850Z,80.61
2018-09-05T02:56:37.107Z,80.17
2018-09-05T02:59:07.099Z,80.14
2018-09-05T03:01:36.881Z,80.61
2018-09-05T03:04:06.292Z,79.68
2018-09-05T03:06:35.417Z,79.57
2018-09-05T03:09:07.648Z,79.88
2018-09-05T03:11:36.875Z,79.83
2018-09-05T03:14:06.130Z,79.51
2018-09-05T03:16:35.282Z,79.52
2018-09-05T03:19:04.726Z,79.19
2018-09-05T03:21:33.603Z,80.02
2018-09-05T03:24:02.894Z,79.51
2018-09-05T03:26:31.681Z,79.57
2018-09-05T03:29:00.910Z,79.92
2018-09-05T03:31:29.749Z,79.88
2018-09-05T03:33:59.244Z,80.00
2018-09-05T03:36:28.619Z,80.14
2018-09-05T03:38:57.454Z,79.90
2018-09-05T03:41:26.731Z,80.13
2018-09-05T03:43:55.491Z,79.55
2018-09-05T03:46:24.328Z,79.30
2018-09-05T03:48:53.163Z,79.90
2018-09-05T03:51:21.941Z,79.40
2018-09-05T03:53:51.688Z,79.79
2018-09-05T03:56:20.603Z,79.68
2018-09-05T03:58:50.083Z,80.18
2018-09-05T04:01:19.900Z,79.86
2018-09-05T04:03:49.088Z,79.62
2018-09-05T04:06:21.223Z,79.98
2018-09-05T04:08:52.920Z,80.20
2018-09-05T04:11:21.730Z,80.10
2018-09-05T04:13:51.174Z,80.17
2018-09-05T04:16:20.178Z,79.80
2018-09-05T04:18:49.657Z,80.53
2018-09-05T04:21:18.679Z,79.71
2018-09-05T04:23:49.617Z,79.59
2018-09-05T04:26:19.612Z,79.76
2018-09-05T04:28:49.497Z,79.37
2018-09-05T04:31:18.545Z,79.56
2018-09-05T04:33:48.077Z,79.80
2018-09-05T04:36:16.886Z,80.28
2018-09-05T04:38:46.263Z,79.91
2018-09-05T04:41:14.996Z,80.21
2018-09-05T04:43:43.889Z,79.80
2018-09-05T04:46:12.779Z,80.37
2018-09-05T04:48:41.573Z,80.26
2018-09-05T04:51:10.487Z,80.44
2018-09-05T04:53:39.482Z,80.51
2018-09-05T04:56:08.347Z,80.23
2018-09-05T04:58:38.952Z,80.37
2018-09-05T05:01:08.280Z,80.23
2018-09-05T05:03:38.474Z,80.41
2018-09-05T05:06:07.827Z,80.57
2018-09-05T05:08:38.492Z,80.81
2018-09-05T05:11:08.398Z,80.07
2018-09-05T05:13:37.960Z,80.03
2018-09-05T05:16:07.715Z,79.87
2018-09-05T05:18:37.492Z,80.08
2018-09-05T05:21:06.781Z,79.48
2018-09-05T05:23:37.252Z,79.87
2018-09-05T05:26:06.715Z,79.43
2018-09-05T05:28:37.270Z,79.31
2018-09-05T05:31:07.321Z,78.75
2018-09-05T05:33:38.144Z,78.85
2018-09-05T05:36:08.199Z,77.89
2018-09-05T05:38:38.561Z,77.80
2018-09-05T05:41:07.835Z,78.64
2018-09-05T05:43:37.395Z,78.29
2018-09-05T05:46:06.428Z,78.21
2018-09-05T05:48:36.136Z,77.94
2018-09-05T05:51:05.679Z,77.97
2018-09-05T05:53:34.768Z,77.37
2018-09-05T05:56:03.615Z,77.82
2018-09-05T05:58:32.995Z,77.17
2018-09-05T06:01:02.595Z,76.78
2018-09-05T06:03:31.957Z,77.54
2018-09-05T06:06:00.906Z,76.37
2018-09-05T06:08:30.761Z,75.33
2018-09-05T06:10:59.875Z,75.21
2018-09-05T06:13:28.816Z,75.96
2018-09-05T06:15:57.985Z,75.46
2018-09-05T06:18:26.803Z,74.64
2018-09-05T06:20:55.657Z,74.38
2018-09-05T06:23:25.429Z,74.05
2018-09-05T06:25:54.243Z,73.88
2018-09-05T06:28:23.506Z,73.93
2018-09-05T06:30:52.600Z,73.34
2018-09-05T06:33:21.975Z,72.67
2018-09-05T06:35:51.504Z,72.55
2018-09-05T06:38:21.143Z,71.39
2018-09-05T06:40:50.594Z,70.99
2018-09-05T06:43:19.564Z,71.46
2018-09-05T06:45:48.600Z,71.29
2018-09-05T06:48:17.532Z,70.04
2018-09-05T06:50:46.452Z,70.13
2018-09-05T06:53:15.627Z,70.00
2018-09-05T06:55:44.420Z,69.63
2018-09-05T06:58:14.103Z,68.71
2018-09-05T07:00:42.899Z,68.65
2018-09-05T07:03:12.700Z,68.71
2018-09-05T07:05:41.527Z,67.93
2018-09-05T07:08:10.309Z,67.18
2018-09-05T07:10:39.844Z,67.25
2018-09-05T07:13:08.613Z,66.07
2018-09-05T07:15:38.323Z,65.41
2018-09-05T07:18:07.797Z,65.87
2018-09-05T07:20:37.000Z,65.32
2018-09-05T07:23:07.076Z,65.33
2018-09-05T07:25:35.955Z,64.68
2018-09-05T07:28:05.995Z,65.29
2018-09-05T07:30:34.848Z,65.37
2018-09-05T07:33:04.094Z,63.14
2018-09-05T07:35:33.326Z,63.48
2018-09-05T07:38:02.545Z,63.76
2018-09-05T07:40:31.275Z,63.25
2018-09-05T07:43:00.066Z,62.12
2018-09-05T07:45:28.908Z,61.74
2018-09-05T07:47:57.741Z,61.49
2018-09-05T07:50:26.629Z,62.40
2018-09-05T07:52:55.533Z,62.22
2018-09-05T07:55:25.016Z,62.04
2018-09-05T07:57:54.800Z,61.75
2018-09-05T08:00:23.596Z,61.53
2018-09-05T08:02:52.932Z,59.97
2018-09-05T08:05:21.793Z,60.67
2018-09-05T08:07:50.822Z,60.66
2018-09-05T08:10:20.424Z,60.51
2018-09-05T08:12:49.541Z,61.32
2018-09-05T08:15:18.471Z,60.94
2018-09-05T08:17:47.584Z,60.09
2018-09-05T08:20:16.307Z,59.60
2018-09-05T08:22:45.803Z,59.18
2018-09-05T08:25:14.551Z,59.69
2018-09-05T08:27:45.079Z,58.53
2018-09-05T08:30:13.844Z,57.83
2018-09-05T08:32:43.387Z,56.87
2018-09-05T08:35:13.033Z,56.87
2018-09-05T08:37:42.858Z,56.38
2018-09-05T08:40:11.510Z,55.50
2018-09-05T08:42:40.464Z,54.56
2018-09-05T08:45:09.474Z,53.95
2018-09-05T08:47:38.390Z,53.45
2018-09-05T08:50:07.708Z,53.74
2018-09-05T08:52:37.092Z,51.84
2018-09-05T08:55:06.997Z,51.61
2018-09-05T08:57:37.333Z,51.74
2018-09-05T09:00:07.525Z,51.54
2018-09-05T09:02:37.403Z,50.76
2018-09-05T09:05:07.304Z,49.66
2018-09-05T09:07:36.395Z,51.02
2018-09-05T09:10:06.976Z,51.11
2018-09-05T09:12:36.541Z,51.24
2018-09-05T09:15:07.356Z,50.90
2018-09-05T09:17:36.600Z,52.15
2018-09-05T09:20:05.740Z,52.10
2018-09-05T09:22:35.732Z,50.42
2018-09-05T09:25:19.440Z,50.19
2018-09-05T09:27:49.267Z,50.30
2018-09-05T09:30:18.063Z,51.14
2018-09-05T09:32:48.535Z,50.62
2018-09-05T09:35:49.145Z,50.51
2018-09-05T09:38:18.683Z,49.67
2018-09-05T09:40:48.162Z,50.65
2018-09-05T09:43:16.924Z,50.86
2018-09-05T09:45:45.743Z,51.17
2018-09-05T09:48:14.502Z,50.48
2018-09-05T09:50:44.274Z,48.63
2018-09-05T09:53:13.005Z,49.55
2018-09-05T09:55:41.807Z,49.66
2018-09-05T09:58:11.141Z,49.73
2018-09-05T10:00:44.877Z,49.67
2018-09-05T10:03:19.327Z,48.81
2018-09-05T10:05:53.251Z,49.29
2018-09-05T10:10:34.261Z,47.92
2018-09-05T10:13:09.447Z,47.86
2018-09-05T10:15:43.419Z,47.35
2018-09-05T10:18:17.276Z,48.06
2018-09-05T10:20:46.130Z,48.67
2018-09-05T10:23:15.486Z,48.12
2018-09-05T10:25:44.353Z,47.52
2018-09-05T10:28:13.774Z,48.11
2018-09-05T10:30:42.644Z,47.64
2018-09-05T10:33:11.973Z,48.00
2018-09-05T10:35:41.360Z,47.14
2018-09-05T10:38:10.724Z,47.45
2018-09-05T10:40:39.501Z,46.69
2018-09-05T10:43:08.487Z,47.28
2018-09-05T10:45:37.899Z,46.27
2018-09-05T10:48:08.245Z,48.09
2018-09-05T10:50:37.842Z,46.68
2018-09-05T10:53:07.830Z,46.49
2018-09-05T10:55:37.361Z,47.23
2018-09-05T10:58:07.527Z,46.76
2018-09-05T11:00:36.794Z,46.13
2018-09-05T11:03:07.105Z,44.46
2018-09-05T11:05:36.381Z,44.84
2018-09-05T11:08:06.010Z,45.55
2018-09-05T11:10:36.356Z,45.19
2018-09-05T11:13:05.492Z,44.97
2018-09-05T11:15:36.094Z,44.03
2018-09-05T11:18:05.775Z,45.30
2018-09-05T11:20:34.940Z,45.25
2018-09-05T11:23:04.268Z,44.28
2018-09-05T11:25:33.218Z,44.90
2018-09-05T11:28:02.925Z,45.35
2018-09-05T11:30:31.767Z,43.58
2018-09-05T11:33:01.086Z,43.66
2018-09-05T11:35:30.366Z,44.73
2018-09-05T11:37:59.842Z,44.18
2018-09-05T11:40:28.709Z,44.06
2018-09-05T11:42:57.578Z,43.31
2018-09-05T11:46:29.663Z,43.06
2018-09-05T11:48:58.457Z,41.81
2018-09-05T11:51:27.302Z,44.24
2018-09-05T11:53:56.037Z,42.37
2018-09-05T11:56:24.811Z,43.70
2018-09-05T11:58:54.405Z,42.55
2018-09-05T12:01:24.060Z,43.19
2018-09-05T12:03:52.848Z,42.75
2018-09-05T12:06:21.671Z,43.83
2018-09-05T12:08:51.195Z,43.66
2018-09-05T12:11:20.124Z,43.93
2018-09-05T12:13:49.174Z,43.56
2018-09-05T12:16:18.102Z,44.71
2018-09-05T12:18:46.896Z,44.31
2018-09-05T12:21:16.071Z,44.41
2018-09-05T12:23:45.595Z,43.97
2018-09-05T12:26:14.486Z,43.14
2018-09-05T12:28:44.041Z,43.92
2018-09-05T12:31:13.733Z,44.57
2018-09-05T12:33:43.150Z,44.94
2018-09-05T12:36:12.531Z,43.11
2018-09-05T12:38:41.368Z,43.09
2018-09-05T12:41:10.490Z,44.07
2018-09-05T12:43:39.947Z,44.01
2018-09-05T12:46:08.775Z,43.75
2018-09-05T12:48:38.395Z,43.15
2018-09-05T12:51:08.465Z,43.79
2018-09-05T12:53:37.753Z,42.25
2018-09-05T12:56:07.635Z,42.78
2018-09-05T12:58:37.291Z,43.58
2018-09-05T13:01:06.899Z,43.71
2018-09-05T13:03:36.813Z,44.34
2018-09-05T13:06:06.755Z,42.88
2018-09-05T13:08:37.227Z,43.58
2018-09-05T13:11:06.708Z,42.60
2018-09-05T13:13:35.701Z,41.56
2018-09-05T13:16:04.696Z,42.92
2018-09-05T13:18:34.007Z,42.40
2018-09-05T13:21:02.923Z,42.25
2018-09-05T13:23:33.811Z,44.07
2018-09-05T13:26:02.590Z,42.84
2018-09-05T13:28:31.972Z,43.06
2018-09-05T13:31:00.844Z,43.57
2018-09-05T13:33:30.129Z,44.25
2018-09-05T13:35:59.807Z,42.86
2018-09-05T13:38:30.656Z,42.52
2018-09-05T13:41:00.978Z,42.91
2018-09-05T13:43:29.991Z,43.49
2018-09-05T13:45:58.833Z,42.31
2018-09-05T13:48:27.624Z,44.21
2018-09-05T13:50:57.160Z,43.53
2018-09-05T13:53:25.947Z,42.38
2018-09-05T13:55:54.803Z,42.74
2018-09-05T13:58:24.254Z,42.79
2018-09-05T14:00:53.016Z,41.97
2018-09-05T14:03:22.477Z,42.80
2018-09-05T14:05:52.115Z,42.94
2018-09-05T14:08:21.311Z,42.74
2018-09-05T14:10:51.620Z,42.47
2018-09-05T14:13:20.656Z,42.45
2018-09-05T14:15:49.664Z,41.54
2018-09-05T14:18:19.236Z,41.07
2018-09-05T14:20:48.024Z,41.89
2018-09-05T14:23:17.524Z,41.82
2018-09-05T14:25:46.314Z,41.65
2018-09-05T14:28:15.804Z,42.81
2018-09-05T14:30:44.598Z,41.75
2018-09-05T14:33:13.981Z,43.21
2018-09-05T14:35:43.301Z,42.83
2018-09-05T14:38:12.834Z,43.38
2018-09-05T14:40:42.196Z,44.28
2018-09-05T14:43:10.988Z,43.65
2018-09-05T14:45:40.412Z,43.88
2018-09-05T14:48:09.271Z,43.81
2018-09-05T14:50:38.953Z,43.43
2018-09-05T14:53:09.949Z,43.23
2018-09-05T14:55:38.818Z,42.36
2018-09-05T14:58:08.907Z,43.31
2018-09-05T15:00:38.029Z,43.33
2018-09-05T15:03:10.577Z,43.12
2018-09-05T15:05:40.116Z,44.59
2018-09-05T15:08:09.789Z,43.72
2018-09-05T15:10:41.206Z,43.00
2018-09-05T15:13:10.889Z,43.91
2018-09-05T15:15:40.934Z,44.77
2018-09-05T15:18:10.344Z,44.90
2018-09-05T15:20:39.086Z,45.43
2018-09-05T15:23:09.560Z,45.16
2018-09-05T15:25:39.120Z,46.69
2018-09-05T15:28:08.542Z,46.51
2018-09-05T15:30:38.065Z,46.18
2018-09-05T15:33:08.397Z,46.20
2018-09-05T15:35:38.082Z,47.32
2018-09-05T15:38:07.932Z,47.29
2018-09-05T15:40:37.585Z,47.91
2018-09-05T15:43:07.290Z,49.47
2018-09-05T15:45:36.861Z,47.89
2018-09-05T15:48:06.285Z,48.46
2018-09-05T15:50:38.599Z,49.33
2018-09-05T15:53:09.991Z,49.52
2018-09-05T15:55:38.960Z,49.69
2018-09-05T15:58:08.860Z,49.11
2018-09-05T16:00:39.020Z,48.72
2018-09-05T16:03:08.500Z,49.64
2018-09-05T16:05:37.671Z,50.08
2018-09-05T16:08:07.588Z,50.72
2018-09-05T16:10:37.938Z,49.87
2018-09-05T16:13:07.444Z,49.86
2018-09-05T16:15:37.405Z,49.39
2018-09-05T16:18:10.217Z,50.90
2018-09-05T16:20:39.001Z,51.31
2018-09-05T16:23:08.447Z,50.38
2018-09-05T16:25:38.051Z,51.13
2018-09-05T16:28:08.310Z,51.30
2018-09-05T16:30:37.577Z,51.19
2018-09-05T16:33:07.782Z,51.39
2018-09-05T16:35:38.170Z,52.11
2018-09-05T16:38:08.277Z,52.03
2018-09-05T16:40:37.759Z,52.10
2018-09-05T16:43:07.441Z,51.64
2018-09-05T16:45:37.127Z,53.24
2018-09-05T16:48:06.459Z,53.42
2018-09-05T16:50:36.521Z,54.01
2018-09-05T16:53:05.879Z,53.90
2018-09-05T16:55:35.212Z,53.98
2018-09-05T16:58:05.203Z,54.56
2018-09-05T17:00:33.967Z,55.27
2018-09-05T17:03:17.981Z,54.95
2018-09-05T17:05:47.310Z,54.46
2018-09-05T17:08:16.083Z,54.70
2018-09-05T17:10:45.357Z,55.66
2018-09-05T17:13:14.119Z,55.67
2018-09-05T17:15:42.965Z,56.68
2018-09-05T17:18:12.712Z,56.92
2018-09-05T17:20:41.536Z,56.33
2018-09-05T17:23:10.820Z,56.59
2018-09-05T17:25:39.671Z,57.88
2018-09-05T17:28:09.133Z,57.71
2018-09-05T17:30:38.856Z,57.42
2018-09-05T17:33:08.540Z,56.93
2018-09-05T17:35:38.971Z,58.61
2018-09-05T17:38:08.920Z,58.60
2018-09-05T17:40:38.045Z,59.52
2018-09-05T17:43:07.341Z,58.22
2018-09-05T17:45:36.653Z,59.11
2018-09-05T17:48:05.827Z,61.15
2018-09-05T17:50:34.826Z,60.93
2018-09-05T17:53:18.474Z,60.86
2018-09-05T17:55:47.379Z,61.44
2018-09-05T17:58:17.012Z,61.88
2018-09-05T18:00:45.845Z,63.10
2018-09-05T18:03:15.309Z,61.50
2018-09-05T18:05:44.155Z,62.00
2018-09-05T18:08:13.080Z,62.95
2018-09-05T18:10:42.307Z,62.99
2018-09-05T18:13:11.065Z,62.56
2018-09-05T18:15:40.661Z,62.67
2018-09-05T18:18:10.109Z,63.00
2018-09-05T18:20:38.959Z,63.24
2018-09-05T18:23:09.392Z,63.86
2018-09-05T18:25:45.003Z,64.16
2018-09-05T18:28:14.627Z,63.79
2018-09-05T18:30:44.029Z,64.89
2018-09-05T18:33:13.578Z,64.23
2018-09-05T18:35:43.319Z,65.15
2018-09-05T18:38:12.507Z,64.66
2018-09-05T18:40:41.281Z,64.90
2018-09-05T18:43:10.109Z,65.57
2018-09-05T18:45:38.948Z,65.13
2018-09-05T18:48:08.364Z,65.58
2018-09-05T18:50:37.775Z,66.19
2018-09-05T18:53:12.481Z,66.81
2018-09-05T18:55:42.746Z,66.57
2018-09-05T18:58:12.166Z,66.72
2018-09-05T19:00:41.015Z,68.07
2018-09-05T19:03:11.131Z,67.52
2018-09-05T19:05:41.403Z,68.17
2018-09-05T19:08:10.214Z,68.61
2018-09-05T19:10:39.611Z,68.46
2018-09-05T19:13:08.404Z,69.05
2018-09-05T19:15:37.884Z,69.03
2018-09-05T19:18:07.664Z,68.27
2018-09-05T19:20:38.373Z,69.09
2018-09-05T19:23:08.139Z,69.09
2018-09-05T19:25:38.438Z,69.72
2018-09-05T19:28:08.085Z,69.34
2018-09-05T19:30:37.435Z,68.74
2018-09-05T19:33:07.416Z,68.80
2018-09-05T19:35:38.248Z,69.72
2018-09-05T19:38:08.569Z,68.58
2018-09-05T19:40:37.950Z,69.18
2018-09-05T19:43:07.161Z,68.47
2018-09-05T19:45:36.371Z,68.26
2018-09-05T19:48:05.551Z,68.10
2018-09-05T19:50:34.626Z,68.90
2018-09-05T19:53:03.620Z,69.07
2018-09-05T19:55:32.496Z,69.60
2018-09-05T19:58:02.183Z,69.65
2018-09-05T20:00:30.970Z,69.72
2018-09-05T20:03:00.472Z,70.00
2018-09-05T20:05:29.322Z,69.18
2018-09-05T20:07:58.126Z,69.43
2018-09-05T20:10:27.505Z,69.39
2018-09-05T20:12:56.368Z,69.94
2018-09-05T20:15:25.828Z,69.28
2018-09-05T20:17:55.304Z,69.73
2018-09-05T20:20:24.198Z,69.95
2018-09-05T20:22:54.208Z,70.02
2018-09-05T20:25:23.635Z,69.88
2018-09-05T20:27:53.015Z,70.36
2018-09-05T20:30:22.775Z,70.85
2018-09-05T20:32:52.502Z,70.33
2018-09-05T20:35:22.082Z,70.93
2018-09-05T20:37:51.525Z,70.67
2018-09-05T20:40:20.511Z,71.88
2018-09-05T20:42:49.568Z,71.69
2018-09-05T20:45:18.578Z,70.96
2018-09-05T20:47:47.372Z,71.97
2018-09-05T20:50:16.462Z,71.50
2018-09-05T20:52:45.235Z,72.05
2018-09-05T20:55:14.040Z,71.29
2018-09-05T20:57:43.604Z,71.19
2018-09-05T21:00:12.412Z,71.26
2018-09-05T21:02:41.883Z,71.24
2018-09-05T21:05:11.322Z,70.64
2018-09-05T21:07:40.116Z,70.84
2018-09-05T21:10:09.460Z,70.91
2018-09-05T21:12:38.432Z,70.90
2018-09-05T21:15:07.685Z,70.17
2018-09-05T21:17:37.439Z,70.76
2018-09-05T21:20:06.985Z,70.72
2018-09-05T21:22:36.920Z,70.13
2018-09-05T21:25:07.220Z,70.90
2018-09-05T21:27:36.622Z,70.08
2018-09-05T21:30:06.633Z,70.21
2018-09-05T21:32:36.451Z,70.27
2018-09-05T21:35:06.287Z,70.11
2018-09-05T21:37:36.460Z,70.98
2018-09-05T21:40:05.881Z,70.58
2018-09-05T21:42:34.868Z,71.11
2018-09-05T21:45:34.278Z,70.20
2018-09-05T21:48:03.312Z,70.83
2018-09-05T21:50:32.183Z,70.44
2018-09-05T21:53:01.291Z,70.83
2018-09-05T21:55:30.692Z,70.76
2018-09-05T21:58:00.468Z,70.61
2018-09-05T22:00:29.447Z,70.31
2018-09-05T22:02:59.339Z,70.49
2018-09-05T22:05:28.532Z,70.58
2018-09-05T22:07:57.451Z,70.51
2018-09-05T22:10:26.767Z,70.87
2018-09-05T22:12:55.556Z,70.60
2018-09-05T22:15:25.008Z,70.88
2018-09-05T22:17:54.386Z,70.85
2018-09-05T22:20:23.807Z,70.52
2018-09-05T22:22:53.091Z,71.03
2018-09-05T22:25:22.099Z,70.04
2018-09-05T22:27:51.572Z,71.02
2018-09-05T22:30:21.235Z,70.00
2018-09-05T22:32:50.862Z,70.26
2018-09-05T22:35:20.582Z,70.81
2018-09-05T22:37:50.249Z,70.30
2018-09-05T22:40:19.559Z,70.83
2018-09-05T22:42:59.539Z,71.35
2018-09-05T22:45:39.335Z,71.00
2018-09-05T22:48:22.701Z,71.25
2018-09-05T22:51:07.703Z,70.76
2018-09-05T22:53:54.478Z,71.29
2018-09-05T22:57:39.490Z,71.57
2018-09-05T23:00:23.329Z,71.60
2018-09-05T23:03:05.660Z,71.55
2018-09-05T23:08:50.192Z,71.95
2018-09-05T23:12:00.291Z,72.66
2018-09-05T23:14:41.185Z,73.20
2018-09-05T23:18:21.532Z,72.53
2018-09-05T23:21:19.433Z,73.93
2018-09-05T23:23:56.854Z,73.79
2018-09-05T23:26:25.992Z,74.29
2018-09-05T23:28:55.417Z,73.80
2018-09-05T23:31:24.577Z,74.47
2018-09-05T23:33:54.280Z,74.41
2018-09-05T23:36:24.080Z,74.62
2018-09-05T23:38:52.949Z,75.18
2018-09-05T23:41:22.137Z,74.28
2018-09-05T23:43:51.395Z,74.75
2018-09-05T23:46:20.397Z,74.32
2018-09-05T23:48:49.587Z,74.14
2018-09-05T23:51:18.382Z,75.15
2018-09-05T23:53:47.210Z,74.25
2018-09-05T23:56:16.078Z,75.22
2018-09-05T23:58:45.640Z,74.50
